sensor_id;sensor_type;location;lat;lon;timestamp;P1;durP1;ratioP1;P2;durP2;ratioP2
62338;SDS011;48368;53.406;6.214;2022-08-04T00:02:23;11.18;;;4.50;;
62338;SDS011;48368;53.406;6.214;2022-08-04T00:04:58;12.38;;;5.60;;
62338;SDS011;48368;53.406;6.214;2022-08-04T00:07:34;11.60;;;4.50;;
62338;SDS011;48368;53.406;6.214;2022-08-04T00:10:06;9.18;;;4.32;;
62338;SDS011;48368;53.406;6.214;2022-08-04T00:12:35;13.30;;;5.03;;
62338;SDS011;48368;53.406;6.214;2022-08-04T00:15:03;14.35;;;4.45;;
62338;SDS011;48368;53.406;6.214;2022-08-04T00:17:31;11.95;;;4.47;;
62338;SDS011;48368;53.406;6.214;2022-08-04T00:20:07;11.55;;;4.65;;
62338;SDS011;48368;53.406;6.214;2022-08-04T00:22:34;10.82;;;4.53;;
62338;SDS011;48368;53.406;6.214;2022-08-04T00:25:03;9.80;;;4.05;;
62338;SDS011;48368;53.406;6.214;2022-08-04T00:27:30;12.85;;;4.53;;
62338;SDS011;48368;53.406;6.214;2022-08-04T00:29:56;10.93;;;4.47;;
62338;SDS011;48368;53.406;6.214;2022-08-04T00:32:23;11.00;;;4.30;;
62338;SDS011;48368;53.406;6.214;2022-08-04T00:34:50;12.18;;;4.18;;
62338;SDS011;48368;53.406;6.214;2022-08-04T00:37:21;9.57;;;4.13;;
62338;SDS011;48368;53.406;6.214;2022-08-04T00:39:48;12.25;;;4.10;;
62338;SDS011;48368;53.406;6.214;2022-08-04T00:44:55;12.60;;;3.87;;
62338;SDS011;48368;53.406;6.214;2022-08-04T00:47:53;8.50;;;3.95;;
62338;SDS011;48368;53.406;6.214;2022-08-04T00:53:17;7.88;;;3.67;;
62338;SDS011;48368;53.406;6.214;2022-08-04T00:56:14;10.85;;;3.60;;
62338;SDS011;48368;53.406;6.214;2022-08-04T00:59:02;13.93;;;3.92;;
62338;SDS011;48368;53.406;6.214;2022-08-04T01:04:39;9.15;;;3.88;;
62338;SDS011;48368;53.406;6.214;2022-08-04T01:07:24;10.00;;;4.13;;
62338;SDS011;48368;53.406;6.214;2022-08-04T01:12:55;9.55;;;4.20;;
62338;SDS011;48368;53.406;6.214;2022-08-04T01:15:48;15.02;;;4.78;;
62338;SDS011;48368;53.406;6.214;2022-08-04T01:19:02;12.43;;;4.13;;
62338;SDS011;48368;53.406;6.214;2022-08-04T01:21:17;10.80;;;4.25;;
62338;SDS011;48368;53.406;6.214;2022-08-04T01:27:01;9.48;;;4.35;;
62338;SDS011;48368;53.406;6.214;2022-08-04T01:29:48;11.80;;;4.63;;
62338;SDS011;48368;53.406;6.214;2022-08-04T01:34:51;10.13;;;4.47;;
62338;SDS011;48368;53.406;6.214;2022-08-04T01:39:50;9.55;;;3.85;;
62338;SDS011;48368;53.406;6.214;2022-08-04T01:42:28;9.20;;;3.92;;
62338;SDS011;48368;53.406;6.214;2022-08-04T01:44:57;12.00;;;4.07;;
62338;SDS011;48368;53.406;6.214;2022-08-04T01:47:24;8.50;;;4.05;;
62338;SDS011;48368;53.406;6.214;2022-08-04T01:49:53;14.38;;;5.38;;
62338;SDS011;48368;53.406;6.214;2022-08-04T01:52:24;9.85;;;4.65;;
62338;SDS011;48368;53.406;6.214;2022-08-04T01:54:52;10.23;;;3.75;;
62338;SDS011;48368;53.406;6.214;2022-08-04T01:57:19;9.48;;;4.00;;
62338;SDS011;48368;53.406;6.214;2022-08-04T01:59:48;13.15;;;4.00;;
62338;SDS011;48368;53.406;6.214;2022-08-04T02:02:17;7.47;;;3.35;;
62338;SDS011;48368;53.406;6.214;2022-08-04T02:04:46;9.82;;;3.85;;
62338;SDS011;48368;53.406;6.214;2022-08-04T02:07:27;6.65;;;3.42;;
62338;SDS011;48368;53.406;6.214;2022-08-04T02:10:28;8.50;;;3.72;;
62338;SDS011;48368;53.406;6.214;2022-08-04T02:13:14;8.75;;;4.13;;
62338;SDS011;48368;53.406;6.214;2022-08-04T02:18:37;10.35;;;3.92;;
62338;SDS011;48368;53.406;6.214;2022-08-04T02:21:25;7.28;;;3.58;;
62338;SDS011;48368;53.406;6.214;2022-08-04T02:23:55;11.82;;;4.47;;
62338;SDS011;48368;53.406;6.214;2022-08-04T02:26:33;11.13;;;4.57;;
62338;SDS011;48368;53.406;6.214;2022-08-04T02:29:16;10.57;;;4.03;;
62338;SDS011;48368;53.406;6.214;2022-08-04T02:31:51;9.63;;;4.57;;
62338;SDS011;48368;53.406;6.214;2022-08-04T02:34:24;12.13;;;4.47;;
62338;SDS011;48368;53.406;6.214;2022-08-04T02:36:53;14.57;;;4.70;;
62338;SDS011;48368;53.406;6.214;2022-08-04T02:39:20;13.73;;;4.20;;
62338;SDS011;48368;53.406;6.214;2022-08-04T02:41:49;9.98;;;4.30;;
62338;SDS011;48368;53.406;6.214;2022-08-04T02:44:22;10.30;;;4.53;;
62338;SDS011;48368;53.406;6.214;2022-08-04T02:46:51;10.25;;;4.20;;
62338;SDS011;48368;53.406;6.214;2022-08-04T02:49:17;10.52;;;4.45;;
62338;SDS011;48368;53.406;6.214;2022-08-04T02:51:46;12.05;;;4.60;;
62338;SDS011;48368;53.406;6.214;2022-08-04T02:54:16;9.63;;;4.50;;
62338;SDS011;48368;53.406;6.214;2022-08-04T02:56:43;8.80;;;4.47;;
62338;SDS011;48368;53.406;6.214;2022-08-04T02:59:11;14.02;;;5.05;;
62338;SDS011;48368;53.406;6.214;2022-08-04T03:01:38;9.85;;;5.40;;
62338;SDS011;48368;53.406;6.214;2022-08-04T03:07:14;10.90;;;5.05;;
62338;SDS011;48368;53.406;6.214;2022-08-04T03:13:02;13.00;;;5.10;;
62338;SDS011;48368;53.406;6.214;2022-08-04T03:27:39;11.98;;;5.00;;
62338;SDS011;48368;53.406;6.214;2022-08-04T03:30:18;11.27;;;5.32;;
62338;SDS011;48368;53.406;6.214;2022-08-04T03:38:11;9.88;;;5.00;;
62338;SDS011;48368;53.406;6.214;2022-08-04T03:55:47;12.20;;;4.80;;
62338;SDS011;48368;53.406;6.214;2022-08-04T04:06:56;12.25;;;4.72;;
62338;SDS011;48368;53.406;6.214;2022-08-04T04:12:30;8.43;;;4.47;;
62338;SDS011;48368;53.406;6.214;2022-08-04T04:24:05;10.35;;;3.85;;
62338;SDS011;48368;53.406;6.214;2022-08-04T04:29:52;11.60;;;4.05;;
62338;SDS011;48368;53.406;6.214;2022-08-04T04:35:24;7.28;;;3.90;;
62338;SDS011;48368;53.406;6.214;2022-08-04T04:40:31;10.68;;;4.75;;
62338;SDS011;48368;53.406;6.214;2022-08-04T04:45:37;9.35;;;3.90;;
62338;SDS011;48368;53.406;6.214;2022-08-04T04:51:04;8.45;;;3.90;;
62338;SDS011;48368;53.406;6.214;2022-08-04T04:53:37;8.50;;;4.07;;
62338;SDS011;48368;53.406;6.214;2022-08-04T04:59:20;8.90;;;3.93;;
62338;SDS011;48368;53.406;6.214;2022-08-04T05:07:44;8.30;;;4.15;;
62338;SDS011;48368;53.406;6.214;2022-08-04T05:15:43;9.50;;;4.38;;
62338;SDS011;48368;53.406;6.214;2022-08-04T05:18:15;9.40;;;4.07;;
62338;SDS011;48368;53.406;6.214;2022-08-04T05:20:47;11.10;;;4.50;;
62338;SDS011;48368;53.406;6.214;2022-08-04T05:23:23;11.05;;;4.63;;
62338;SDS011;48368;53.406;6.214;2022-08-04T05:25:56;7.47;;;4.65;;
62338;SDS011;48368;53.406;6.214;2022-08-04T05:28:41;11.43;;;4.95;;
62338;SDS011;48368;53.406;6.214;2022-08-04T05:31:22;11.77;;;4.97;;
62338;SDS011;48368;53.406;6.214;2022-08-04T05:36:19;8.10;;;5.00;;
62338;SDS011;48368;53.406;6.214;2022-08-04T05:38:51;6.93;;;3.90;;
62338;SDS011;48368;53.406;6.214;2022-08-04T05:41:18;10.05;;;3.63;;
62338;SDS011;48368;53.406;6.214;2022-08-04T05:43:46;10.20;;;4.30;;
62338;SDS011;48368;53.406;6.214;2022-08-04T05:46:13;8.05;;;3.67;;
62338;SDS011;48368;53.406;6.214;2022-08-04T05:48:41;7.95;;;3.50;;
62338;SDS011;48368;53.406;6.214;2022-08-04T05:51:09;6.57;;;3.60;;
62338;SDS011;48368;53.406;6.214;2022-08-04T05:53:36;12.18;;;4.10;;
62338;SDS011;48368;53.406;6.214;2022-08-04T05:56:03;10.93;;;4.18;;
62338;SDS011;48368;53.406;6.214;2022-08-04T05:58:30;10.38;;;3.95;;
62338;SDS011;48368;53.406;6.214;2022-08-04T06:01:00;7.22;;;3.70;;
62338;SDS011;48368;53.406;6.214;2022-08-04T06:03:26;9.05;;;3.80;;
62338;SDS011;48368;53.406;6.214;2022-08-04T06:05:55;11.90;;;4.20;;
62338;SDS011;48368;53.406;6.214;2022-08-04T06:08:21;9.07;;;4.20;;
62338;SDS011;48368;53.406;6.214;2022-08-04T06:10:48;8.05;;;5.13;;
62338;SDS011;48368;53.406;6.214;2022-08-04T06:13:16;10.30;;;5.00;;
62338;SDS011;48368;53.406;6.214;2022-08-04T06:15:44;11.38;;;5.30;;
62338;SDS011;48368;53.406;6.214;2022-08-04T06:18:12;11.00;;;5.07;;
62338;SDS011;48368;53.406;6.214;2022-08-04T06:20:38;7.80;;;4.75;;
62338;SDS011;48368;53.406;6.214;2022-08-04T06:23:07;12.57;;;5.47;;
62338;SDS011;48368;53.406;6.214;2022-08-04T06:25:40;8.07;;;5.30;;
62338;SDS011;48368;53.406;6.214;2022-08-04T06:28:09;10.32;;;4.65;;
62338;SDS011;48368;53.406;6.214;2022-08-04T06:30:37;10.98;;;4.80;;
62338;SDS011;48368;53.406;6.214;2022-08-04T06:33:05;9.43;;;5.00;;
62338;SDS011;48368;53.406;6.214;2022-08-04T06:35:49;10.23;;;5.30;;
62338;SDS011;48368;53.406;6.214;2022-08-04T06:38:18;10.43;;;5.28;;
62338;SDS011;48368;53.406;6.214;2022-08-04T06:40:45;11.80;;;6.03;;
62338;SDS011;48368;53.406;6.214;2022-08-04T06:43:11;11.02;;;5.45;;
62338;SDS011;48368;53.406;6.214;2022-08-04T06:45:37;10.15;;;5.65;;
62338;SDS011;48368;53.406;6.214;2022-08-04T06:48:05;14.45;;;5.57;;
62338;SDS011;48368;53.406;6.214;2022-08-04T06:50:35;13.40;;;7.35;;
62338;SDS011;48368;53.406;6.214;2022-08-04T06:53:02;12.60;;;6.18;;
62338;SDS011;48368;53.406;6.214;2022-08-04T06:55:28;16.38;;;6.43;;
62338;SDS011;48368;53.406;6.214;2022-08-04T06:57:55;11.80;;;5.90;;
62338;SDS011;48368;53.406;6.214;2022-08-04T07:00:23;15.05;;;6.82;;
62338;SDS011;48368;53.406;6.214;2022-08-04T07:02:50;14.98;;;6.70;;
62338;SDS011;48368;53.406;6.214;2022-08-04T07:05:17;13.15;;;6.60;;
62338;SDS011;48368;53.406;6.214;2022-08-04T07:07:44;9.00;;;5.90;;
62338;SDS011;48368;53.406;6.214;2022-08-04T07:10:10;16.00;;;6.22;;
62338;SDS011;48368;53.406;6.214;2022-08-04T07:12:37;10.98;;;5.88;;
62338;SDS011;48368;53.406;6.214;2022-08-04T07:15:04;10.13;;;5.82;;
62338;SDS011;48368;53.406;6.214;2022-08-04T07:17:31;12.43;;;5.75;;
62338;SDS011;48368;53.406;6.214;2022-08-04T07:20:00;10.80;;;5.72;;
62338;SDS011;48368;53.406;6.214;2022-08-04T07:22:27;12.82;;;6.00;;
62338;SDS011;48368;53.406;6.214;2022-08-04T07:24:56;13.38;;;6.57;;
62338;SDS011;48368;53.406;6.214;2022-08-04T07:27:23;10.82;;;5.90;;
62338;SDS011;48368;53.406;6.214;2022-08-04T07:29:50;11.85;;;5.85;;
62338;SDS011;48368;53.406;6.214;2022-08-04T07:32:18;11.07;;;5.40;;
62338;SDS011;48368;53.406;6.214;2022-08-04T07:34:45;13.00;;;5.32;;
62338;SDS011;48368;53.406;6.214;2022-08-04T07:37:12;12.45;;;6.15;;
62338;SDS011;48368;53.406;6.214;2022-08-04T07:39:38;11.32;;;6.65;;
62338;SDS011;48368;53.406;6.214;2022-08-04T07:42:05;11.10;;;6.03;;
62338;SDS011;48368;53.406;6.214;2022-08-04T07:44:31;13.32;;;5.90;;
62338;SDS011;48368;53.406;6.214;2022-08-04T07:46:59;11.90;;;5.72;;
62338;SDS011;48368;53.406;6.214;2022-08-04T07:49:25;9.13;;;5.63;;
62338;SDS011;48368;53.406;6.214;2022-08-04T07:51:52;14.80;;;6.00;;
62338;SDS011;48368;53.406;6.214;2022-08-04T07:54:18;9.32;;;5.10;;
62338;SDS011;48368;53.406;6.214;2022-08-04T07:56:45;9.95;;;6.03;;
62338;SDS011;48368;53.406;6.214;2022-08-04T07:59:13;10.15;;;5.63;;
62338;SDS011;48368;53.406;6.214;2022-08-04T08:01:40;12.27;;;5.57;;
62338;SDS011;48368;53.406;6.214;2022-08-04T08:04:07;9.80;;;4.88;;
62338;SDS011;48368;53.406;6.214;2022-08-04T08:06:34;10.68;;;4.97;;
62338;SDS011;48368;53.406;6.214;2022-08-04T08:09:14;6.75;;;4.57;;
62338;SDS011;48368;53.406;6.214;2022-08-04T08:11:42;10.38;;;4.35;;
62338;SDS011;48368;53.406;6.214;2022-08-04T08:14:09;7.85;;;4.60;;
62338;SDS011;48368;53.406;6.214;2022-08-04T08:16:36;11.00;;;4.78;;
62338;SDS011;48368;53.406;6.214;2022-08-04T08:19:03;16.75;;;4.72;;
62338;SDS011;48368;53.406;6.214;2022-08-04T08:21:29;11.48;;;4.95;;
62338;SDS011;48368;53.406;6.214;2022-08-04T08:23:55;8.05;;;4.70;;
62338;SDS011;48368;53.406;6.214;2022-08-04T08:26:22;6.63;;;4.05;;
62338;SDS011;48368;53.406;6.214;2022-08-04T08:28:47;9.40;;;4.35;;
62338;SDS011;48368;53.406;6.214;2022-08-04T08:31:13;6.63;;;3.63;;
62338;SDS011;48368;53.406;6.214;2022-08-04T08:33:39;11.45;;;4.22;;
62338;SDS011;48368;53.406;6.214;2022-08-04T08:36:11;9.23;;;3.88;;
62338;SDS011;48368;53.406;6.214;2022-08-04T08:55:16;8.80;;;3.10;;
62338;SDS011;48368;53.406;6.214;2022-08-04T09:00:41;6.10;;;2.50;;
62338;SDS011;48368;53.406;6.214;2022-08-04T09:06:01;7.25;;;1.90;;
62338;SDS011;48368;53.406;6.214;2022-08-04T09:11:55;6.32;;;2.13;;
62338;SDS011;48368;53.406;6.214;2022-08-04T09:14:49;7.05;;;2.25;;
62338;SDS011;48368;53.406;6.214;2022-08-04T09:17:26;9.52;;;2.47;;
62338;SDS011;48368;53.406;6.214;2022-08-04T09:20:12;5.45;;;2.05;;
62338;SDS011;48368;53.406;6.214;2022-08-04T09:22:49;11.00;;;2.20;;
62338;SDS011;48368;53.406;6.214;2022-08-04T09:25:32;7.20;;;1.70;;
62338;SDS011;48368;53.406;6.214;2022-08-04T09:28:17;3.72;;;1.27;;
62338;SDS011;48368;53.406;6.214;2022-08-04T09:39:27;3.22;;;0.88;;
62338;SDS011;48368;53.406;6.214;2022-08-04T09:47:45;5.43;;;1.60;;
62338;SDS011;48368;53.406;6.214;2022-08-04T09:55:47;6.05;;;2.30;;
62338;SDS011;48368;53.406;6.214;2022-08-04T10:00:59;3.92;;;1.50;;
62338;SDS011;48368;53.406;6.214;2022-08-04T10:03:27;2.60;;;1.27;;
62338;SDS011;48368;53.406;6.214;2022-08-04T10:06:00;2.38;;;1.25;;
62338;SDS011;48368;53.406;6.214;2022-08-04T10:11:52;4.13;;;1.13;;
62338;SDS011;48368;53.406;6.214;2022-08-04T10:17:36;2.25;;;1.20;;
62338;SDS011;48368;53.406;6.214;2022-08-04T10:22:40;6.00;;;1.88;;
62338;SDS011;48368;53.406;6.214;2022-08-04T10:28:05;6.43;;;1.70;;
62338;SDS011;48368;53.406;6.214;2022-08-04T10:30:34;4.38;;;1.80;;
62338;SDS011;48368;53.406;6.214;2022-08-04T10:35:36;3.45;;;1.15;;
62338;SDS011;48368;53.406;6.214;2022-08-04T10:38:14;4.72;;;1.48;;
62338;SDS011;48368;53.406;6.214;2022-08-04T10:43:41;3.17;;;1.42;;
62338;SDS011;48368;53.406;6.214;2022-08-04T10:46:31;5.40;;;1.58;;
62338;SDS011;48368;53.406;6.214;2022-08-04T10:49:03;5.32;;;1.50;;
62338;SDS011;48368;53.406;6.214;2022-08-04T10:51:45;4.32;;;1.42;;
62338;SDS011;48368;53.406;6.214;2022-08-04T10:56:54;7.40;;;1.95;;
62338;SDS011;48368;53.406;6.214;2022-08-04T10:59:32;3.67;;;1.55;;
62338;SDS011;48368;53.406;6.214;2022-08-04T11:04:54;5.45;;;1.85;;
62338;SDS011;48368;53.406;6.214;2022-08-04T11:07:29;6.13;;;2.30;;
62338;SDS011;48368;53.406;6.214;2022-08-04T11:09:59;6.75;;;2.22;;
62338;SDS011;48368;53.406;6.214;2022-08-04T11:12:25;8.75;;;1.88;;
62338;SDS011;48368;53.406;6.214;2022-08-04T11:15:00;7.13;;;1.73;;
62338;SDS011;48368;53.406;6.214;2022-08-04T11:17:34;5.25;;;1.60;;
62338;SDS011;48368;53.406;6.214;2022-08-04T11:20:11;5.25;;;1.70;;
62338;SDS011;48368;53.406;6.214;2022-08-04T11:22:54;4.32;;;1.50;;
62338;SDS011;48368;53.406;6.214;2022-08-04T11:28:26;9.60;;;1.95;;
62338;SDS011;48368;53.406;6.214;2022-08-04T11:31:13;10.10;;;2.28;;
62338;SDS011;48368;53.406;6.214;2022-08-04T11:34:19;6.47;;;2.20;;
62338;SDS011;48368;53.406;6.214;2022-08-04T11:36:51;10.13;;;2.10;;
62338;SDS011;48368;53.406;6.214;2022-08-04T11:39:34;7.78;;;1.90;;
62338;SDS011;48368;53.406;6.214;2022-08-04T11:42:14;9.32;;;2.40;;
62338;SDS011;48368;53.406;6.214;2022-08-04T11:47:18;7.53;;;3.20;;
62338;SDS011;48368;53.406;6.214;2022-08-04T11:49:53;10.30;;;2.45;;
62338;SDS011;48368;53.406;6.214;2022-08-04T11:52:25;10.27;;;2.78;;
62338;SDS011;48368;53.406;6.214;2022-08-04T11:54:52;8.48;;;2.83;;
62338;SDS011;48368;53.406;6.214;2022-08-04T11:57:20;9.77;;;3.30;;
62338;SDS011;48368;53.406;6.214;2022-08-04T11:59:46;9.35;;;3.00;;
62338;SDS011;48368;53.406;6.214;2022-08-04T12:04:57;10.40;;;3.03;;
62338;SDS011;48368;53.406;6.214;2022-08-04T12:07:36;9.15;;;2.67;;
62338;SDS011;48368;53.406;6.214;2022-08-04T12:15:32;14.00;;;3.70;;
62338;SDS011;48368;53.406;6.214;2022-08-04T12:18:09;11.82;;;2.70;;
62338;SDS011;48368;53.406;6.214;2022-08-04T12:20:49;11.68;;;3.20;;
62338;SDS011;48368;53.406;6.214;2022-08-04T12:23:24;8.90;;;2.97;;
62338;SDS011;48368;53.406;6.214;2022-08-04T12:25:55;16.40;;;3.75;;
62338;SDS011;48368;53.406;6.214;2022-08-04T12:31:19;11.55;;;3.35;;
62338;SDS011;48368;53.406;6.214;2022-08-04T12:33:58;9.90;;;3.60;;
62338;SDS011;48368;53.406;6.214;2022-08-04T12:36:37;12.18;;;3.70;;
62338;SDS011;48368;53.406;6.214;2022-08-04T12:39:10;11.40;;;2.83;;
62338;SDS011;48368;53.406;6.214;2022-08-04T12:44:35;12.77;;;2.90;;
62338;SDS011;48368;53.406;6.214;2022-08-04T12:47:03;12.15;;;3.28;;
62338;SDS011;48368;53.406;6.214;2022-08-04T12:49:34;13.05;;;3.80;;
62338;SDS011;48368;53.406;6.214;2022-08-04T12:52:04;13.77;;;3.80;;
62338;SDS011;48368;53.406;6.214;2022-08-04T12:54:31;11.73;;;3.95;;
62338;SDS011;48368;53.406;6.214;2022-08-04T12:57:00;12.20;;;3.70;;
62338;SDS011;48368;53.406;6.214;2022-08-04T12:59:27;13.68;;;3.70;;
62338;SDS011;48368;53.406;6.214;2022-08-04T13:01:53;10.77;;;3.90;;
62338;SDS011;48368;53.406;6.214;2022-08-04T13:04:23;13.70;;;4.85;;
62338;SDS011;48368;53.406;6.214;2022-08-04T13:06:52;15.63;;;4.43;;
62338;SDS011;48368;53.406;6.214;2022-08-04T13:09:25;10.98;;;4.60;;
62338;SDS011;48368;53.406;6.214;2022-08-04T13:11:58;12.85;;;4.18;;
62338;SDS011;48368;53.406;6.214;2022-08-04T13:14:27;11.68;;;4.70;;
62338;SDS011;48368;53.406;6.214;2022-08-04T13:17:00;9.93;;;4.78;;
62338;SDS011;48368;53.406;6.214;2022-08-04T13:19:26;10.35;;;4.80;;
62338;SDS011;48368;53.406;6.214;2022-08-04T13:21:53;9.32;;;4.72;;
62338;SDS011;48368;53.406;6.214;2022-08-04T13:24:21;9.52;;;4.70;;
62338;SDS011;48368;53.406;6.214;2022-08-04T13:29:30;8.23;;;4.25;;
62338;SDS011;48368;53.406;6.214;2022-08-04T13:32:05;8.38;;;4.30;;
62338;SDS011;48368;53.406;6.214;2022-08-04T13:34:32;7.45;;;3.97;;
62338;SDS011;48368;53.406;6.214;2022-08-04T13:36:58;7.72;;;3.67;;
62338;SDS011;48368;53.406;6.214;2022-08-04T13:39:26;7.05;;;4.05;;
62338;SDS011;48368;53.406;6.214;2022-08-04T13:41:53;5.85;;;3.10;;
62338;SDS011;48368;53.406;6.214;2022-08-04T13:44:31;6.18;;;3.47;;
62338;SDS011;48368;53.406;6.214;2022-08-04T13:47:06;7.63;;;3.45;;
62338;SDS011;48368;53.406;6.214;2022-08-04T13:49:33;5.68;;;3.05;;
62338;SDS011;48368;53.406;6.214;2022-08-04T13:52:00;5.32;;;3.65;;
62338;SDS011;48368;53.406;6.214;2022-08-04T13:54:35;5.22;;;2.90;;
62338;SDS011;48368;53.406;6.214;2022-08-04T13:57:01;4.63;;;3.38;;
62338;SDS011;48368;53.406;6.214;2022-08-04T13:59:35;4.90;;;3.28;;
62338;SDS011;48368;53.406;6.214;2022-08-04T14:02:03;5.80;;;3.05;;
62338;SDS011;48368;53.406;6.214;2022-08-04T14:04:33;4.88;;;3.00;;
62338;SDS011;48368;53.406;6.214;2022-08-04T14:07:04;6.18;;;2.85;;
62338;SDS011;48368;53.406;6.214;2022-08-04T14:09:37;4.07;;;2.40;;
62338;SDS011;48368;53.406;6.214;2022-08-04T14:12:05;4.57;;;2.38;;
62338;SDS011;48368;53.406;6.214;2022-08-04T14:14:51;4.05;;;2.50;;
62338;SDS011;48368;53.406;6.214;2022-08-04T14:17:22;5.03;;;2.50;;
62338;SDS011;48368;53.406;6.214;2022-08-04T14:19:56;4.97;;;2.42;;
62338;SDS011;48368;53.406;6.214;2022-08-04T14:22:28;4.45;;;1.95;;
62338;SDS011;48368;53.406;6.214;2022-08-04T14:27:20;5.55;;;1.88;;
62338;SDS011;48368;53.406;6.214;2022-08-04T14:29:45;2.70;;;1.60;;
62338;SDS011;48368;53.406;6.214;2022-08-04T14:32:11;2.35;;;1.50;;
62338;SDS011;48368;53.406;6.214;2022-08-04T14:34:37;3.13;;;1.35;;
62338;SDS011;48368;53.406;6.214;2022-08-04T14:37:07;3.85;;;1.42;;
62338;SDS011;48368;53.406;6.214;2022-08-04T14:39:36;2.50;;;1.25;;
62338;SDS011;48368;53.406;6.214;2022-08-04T14:42:03;4.53;;;1.42;;
62338;SDS011;48368;53.406;6.214;2022-08-04T14:44:30;3.28;;;1.60;;
62338;SDS011;48368;53.406;6.214;2022-08-04T14:46:56;2.28;;;1.50;;
62338;SDS011;48368;53.406;6.214;2022-08-04T14:49:23;6.82;;;2.40;;
62338;SDS011;48368;53.406;6.214;2022-08-04T14:51:55;3.67;;;1.40;;
62338;SDS011;48368;53.406;6.214;2022-08-04T14:54:31;6.10;;;1.65;;
62338;SDS011;48368;53.406;6.214;2022-08-04T14:57:05;5.85;;;1.50;;
62338;SDS011;48368;53.406;6.214;2022-08-04T14:59:39;3.95;;;1.30;;
62338;SDS011;48368;53.406;6.214;2022-08-04T15:02:13;4.30;;;1.40;;
62338;SDS011;48368;53.406;6.214;2022-08-04T15:04:40;4.63;;;1.48;;
62338;SDS011;48368;53.406;6.214;2022-08-04T15:07:09;2.90;;;1.20;;
62338;SDS011;48368;53.406;6.214;2022-08-04T15:09:35;3.92;;;1.30;;
62338;SDS011;48368;53.406;6.214;2022-08-04T15:12:01;4.22;;;1.30;;
62338;SDS011;48368;53.406;6.214;2022-08-04T15:14:28;4.93;;;1.88;;
62338;SDS011;48368;53.406;6.214;2022-08-04T15:16:55;4.97;;;1.48;;
62338;SDS011;48368;53.406;6.214;2022-08-04T15:19:21;6.18;;;1.35;;
62338;SDS011;48368;53.406;6.214;2022-08-04T15:21:48;4.45;;;1.63;;
62338;SDS011;48368;53.406;6.214;2022-08-04T15:24:14;5.97;;;1.33;;
62338;SDS011;48368;53.406;6.214;2022-08-04T15:26:41;5.90;;;1.40;;
62338;SDS011;48368;53.406;6.214;2022-08-04T15:29:12;3.03;;;1.05;;
62338;SDS011;48368;53.406;6.214;2022-08-04T15:31:41;4.10;;;1.30;;
62338;SDS011;48368;53.406;6.214;2022-08-04T15:34:09;5.28;;;1.70;;
62338;SDS011;48368;53.406;6.214;2022-08-04T15:36:45;4.47;;;1.10;;
62338;SDS011;48368;53.406;6.214;2022-08-04T15:39:27;4.50;;;1.50;;
62338;SDS011;48368;53.406;6.214;2022-08-04T15:47:37;4.95;;;1.50;;
62338;SDS011;48368;53.406;6.214;2022-08-04T15:50:05;3.22;;;1.50;;
62338;SDS011;48368;53.406;6.214;2022-08-04T15:55:34;3.92;;;1.42;;
62338;SDS011;48368;53.406;6.214;2022-08-04T15:58:02;5.38;;;1.95;;
62338;SDS011;48368;53.406;6.214;2022-08-04T16:16:47;5.68;;;2.00;;
62338;SDS011;48368;53.406;6.214;2022-08-04T16:27:03;5.03;;;2.20;;
62338;SDS011;48368;53.406;6.214;2022-08-04T16:32:10;5.65;;;2.10;;
62338;SDS011;48368;53.406;6.214;2022-08-04T16:34:43;3.72;;;1.58;;
62338;SDS011;48368;53.406;6.214;2022-08-04T16:37:12;5.35;;;1.80;;
62338;SDS011;48368;53.406;6.214;2022-08-04T16:39:39;5.05;;;1.95;;
62338;SDS011;48368;53.406;6.214;2022-08-04T16:50:16;5.85;;;1.40;;
62338;SDS011;48368;53.406;6.214;2022-08-04T16:52:48;4.95;;;1.60;;
62338;SDS011;48368;53.406;6.214;2022-08-04T16:55:19;5.85;;;2.28;;
62338;SDS011;48368;53.406;6.214;2022-08-04T16:57:46;4.78;;;1.40;;
62338;SDS011;48368;53.406;6.214;2022-08-04T17:00:12;2.97;;;1.45;;
62338;SDS011;48368;53.406;6.214;2022-08-04T17:02:38;3.90;;;1.58;;
62338;SDS011;48368;53.406;6.214;2022-08-04T17:05:05;3.75;;;1.58;;
62338;SDS011;48368;53.406;6.214;2022-08-04T17:07:48;3.58;;;1.60;;
62338;SDS011;48368;53.406;6.214;2022-08-04T17:10:18;6.03;;;1.60;;
62338;SDS011;48368;53.406;6.214;2022-08-04T17:12:54;3.17;;;1.38;;
62338;SDS011;48368;53.406;6.214;2022-08-04T17:15:20;5.05;;;1.60;;
62338;SDS011;48368;53.406;6.214;2022-08-04T17:17:47;4.60;;;1.65;;
62338;SDS011;48368;53.406;6.214;2022-08-04T17:20:13;2.95;;;1.40;;
62338;SDS011;48368;53.406;6.214;2022-08-04T17:22:39;4.63;;;1.55;;
62338;SDS011;48368;53.406;6.214;2022-08-04T17:25:05;5.72;;;1.30;;
62338;SDS011;48368;53.406;6.214;2022-08-04T17:27:31;4.30;;;1.40;;
62338;SDS011;48368;53.406;6.214;2022-08-04T17:29:57;6.45;;;1.70;;
62338;SDS011;48368;53.406;6.214;2022-08-04T17:32:23;3.20;;;1.50;;
62338;SDS011;48368;53.406;6.214;2022-08-04T17:34:49;3.03;;;1.45;;
62338;SDS011;48368;53.406;6.214;2022-08-04T17:37:17;4.78;;;1.50;;
62338;SDS011;48368;53.406;6.214;2022-08-04T17:39:43;5.03;;;1.35;;
62338;SDS011;48368;53.406;6.214;2022-08-04T17:42:08;5.18;;;1.45;;
62338;SDS011;48368;53.406;6.214;2022-08-04T17:44:34;6.25;;;2.22;;
62338;SDS011;48368;53.406;6.214;2022-08-04T17:47:15;4.40;;;1.27;;
62338;SDS011;48368;53.406;6.214;2022-08-04T17:49:41;4.32;;;1.23;;
62338;SDS011;48368;53.406;6.214;2022-08-04T17:52:07;5.32;;;1.70;;
62338;SDS011;48368;53.406;6.214;2022-08-04T17:54:44;4.22;;;1.48;;
62338;SDS011;48368;53.406;6.214;2022-08-04T17:57:15;5.05;;;1.80;;
62338;SDS011;48368;53.406;6.214;2022-08-04T17:59:45;4.43;;;1.55;;
62338;SDS011;48368;53.406;6.214;2022-08-04T18:02:26;6.22;;;1.70;;
62338;SDS011;48368;53.406;6.214;2022-08-04T18:04:54;3.42;;;1.52;;
62338;SDS011;48368;53.406;6.214;2022-08-04T18:07:23;3.00;;;1.40;;
62338;SDS011;48368;53.406;6.214;2022-08-04T18:10:00;4.22;;;1.85;;
62338;SDS011;48368;53.406;6.214;2022-08-04T18:14:59;3.63;;;1.45;;
62338;SDS011;48368;53.406;6.214;2022-08-04T18:17:35;4.15;;;1.58;;
62338;SDS011;48368;53.406;6.214;2022-08-04T18:20:03;5.00;;;1.92;;
62338;SDS011;48368;53.406;6.214;2022-08-04T18:22:31;4.90;;;2.05;;
62338;SDS011;48368;53.406;6.214;2022-08-04T18:24:56;6.60;;;1.70;;
62338;SDS011;48368;53.406;6.214;2022-08-04T18:27:27;3.20;;;1.70;;
62338;SDS011;48368;53.406;6.214;2022-08-04T18:29:55;5.32;;;1.65;;
62338;SDS011;48368;53.406;6.214;2022-08-04T18:32:22;5.78;;;1.70;;
62338;SDS011;48368;53.406;6.214;2022-08-04T18:34:50;5.22;;;1.80;;
62338;SDS011;48368;53.406;6.214;2022-08-04T18:37:16;5.25;;;1.63;;
62338;SDS011;48368;53.406;6.214;2022-08-04T18:39:42;5.13;;;2.03;;
62338;SDS011;48368;53.406;6.214;2022-08-04T18:42:09;4.68;;;1.80;;
62338;SDS011;48368;53.406;6.214;2022-08-04T18:44:35;3.88;;;1.83;;
62338;SDS011;48368;53.406;6.214;2022-08-04T18:47:00;4.32;;;1.75;;
62338;SDS011;48368;53.406;6.214;2022-08-04T18:49:26;5.65;;;1.90;;
62338;SDS011;48368;53.406;6.214;2022-08-04T18:51:53;4.13;;;1.70;;
62338;SDS011;48368;53.406;6.214;2022-08-04T18:54:19;4.82;;;2.13;;
62338;SDS011;48368;53.406;6.214;2022-08-04T18:56:48;8.65;;;2.08;;
62338;SDS011;48368;53.406;6.214;2022-08-04T18:59:14;5.63;;;2.17;;
62338;SDS011;48368;53.406;6.214;2022-08-04T19:01:40;8.57;;;1.90;;
62338;SDS011;48368;53.406;6.214;2022-08-04T19:04:06;5.47;;;1.98;;
62338;SDS011;48368;53.406;6.214;2022-08-04T19:06:33;7.47;;;2.13;;
62338;SDS011;48368;53.406;6.214;2022-08-04T19:08:59;6.93;;;2.00;;
62338;SDS011;48368;53.406;6.214;2022-08-04T19:11:25;5.18;;;2.03;;
62338;SDS011;48368;53.406;6.214;2022-08-04T19:13:50;3.67;;;1.67;;
62338;SDS011;48368;53.406;6.214;2022-08-04T19:16:16;6.95;;;2.40;;
62338;SDS011;48368;53.406;6.214;2022-08-04T19:18:42;7.03;;;1.80;;
62338;SDS011;48368;53.406;6.214;2022-08-04T19:21:08;4.47;;;2.00;;